createdAt,value
2018-08-22T00:01:48.563Z,21.23
2018-08-22T00:04:17.504Z,21.18
2018-08-22T00:06:46.406Z,21.09
2018-08-22T00:09:15.545Z,21.06
2018-08-22T00:11:44.516Z,20.99
2018-08-22T00:14:13.374Z,20.98
2018-08-22T00:16:43.289Z,20.88
2018-08-22T00:19:12.204Z,20.88
2018-08-22T00:21:41.093Z,20.89
2018-08-22T00:24:09.981Z,20.90
2018-08-22T00:26:38.867Z,20.85
2018-08-22T00:29:07.831Z,20.85
2018-08-22T00:31:36.652Z,20.85
2018-08-22T00:34:05.600Z,20.91
2018-08-22T00:36:34.464Z,20.91
2018-08-22T00:39:03.785Z,20.89
2018-08-22T00:41:32.746Z,20.81
2018-08-22T00:44:01.594Z,20.87
2018-08-22T00:46:30.492Z,20.85
2018-08-22T00:48:59.411Z,20.88
2018-08-22T00:51:28.342Z,20.86
2018-08-22T00:53:57.298Z,20.73
2018-08-22T00:56:26.182Z,20.77
2018-08-22T00:58:55.091Z,20.81
2018-08-22T01:01:24.060Z,20.72
2018-08-22T01:03:52.946Z,20.73
2018-08-22T01:06:22.869Z,20.72
2018-08-22T01:08:51.762Z,20.70
2018-08-22T01:11:20.760Z,20.68
2018-08-22T01:13:49.662Z,20.65
2018-08-22T01:16:18.544Z,20.47
2018-08-22T01:18:47.441Z,20.59
2018-08-22T01:21:16.292Z,20.69
2018-08-22T01:23:45.199Z,20.65
2018-08-22T01:26:14.092Z,20.58
2018-08-22T01:28:44.039Z,20.58
2018-08-22T01:31:12.946Z,20.63
2018-08-22T01:33:41.927Z,20.60
2018-08-22T01:36:10.781Z,20.69
2018-08-22T01:38:39.688Z,20.70
2018-08-22T01:41:08.784Z,20.72
2018-08-22T01:43:37.710Z,20.72
2018-08-22T01:46:06.646Z,20.73
2018-08-22T01:48:35.559Z,20.74
2018-08-22T01:51:04.448Z,20.74
2018-08-22T01:53:33.487Z,20.80
2018-08-22T01:56:02.437Z,20.72
2018-08-22T01:58:31.341Z,20.72
2018-08-22T02:01:00.263Z,20.69
2018-08-22T02:03:29.212Z,20.59
2018-08-22T02:05:58.177Z,20.60
2018-08-22T02:08:27.035Z,20.64
2018-08-22T02:10:55.914Z,20.64
2018-08-22T02:13:25.009Z,20.64
2018-08-22T02:15:53.934Z,20.61
2018-08-22T02:18:22.821Z,20.51
2018-08-22T02:20:51.739Z,20.51
2018-08-22T02:23:20.632Z,20.45
2018-08-22T02:25:49.537Z,20.47
2018-08-22T02:28:18.413Z,20.47
2018-08-22T02:30:47.363Z,20.42
2018-08-22T02:33:16.255Z,20.30
2018-08-22T02:35:45.138Z,20.28
2018-08-22T02:38:18.175Z,20.30
2018-08-22T02:40:47.069Z,20.25
2018-08-22T02:43:16.060Z,20.28
2018-08-22T02:45:45.012Z,20.27
2018-08-22T02:48:13.915Z,20.26
2018-08-22T02:50:42.811Z,20.22
2018-08-22T02:53:11.708Z,20.23
2018-08-22T02:55:40.968Z,20.24
2018-08-22T02:58:09.876Z,20.22
2018-08-22T03:00:38.790Z,20.17
2018-08-22T03:03:07.650Z,20.04
2018-08-22T03:05:36.537Z,19.98
2018-08-22T03:08:05.551Z,19.83
2018-08-22T03:10:34.517Z,19.97
2018-08-22T03:13:03.397Z,19.98
2018-08-22T03:15:32.325Z,19.91
2018-08-22T03:18:01.223Z,19.97
2018-08-22T03:20:30.161Z,19.94
2018-08-22T03:22:59.035Z,19.74
2018-08-22T03:25:28.013Z,19.87
2018-08-22T03:27:56.906Z,19.90
2018-08-22T03:30:26.839Z,19.87
2018-08-22T03:32:55.725Z,19.84
2018-08-22T03:35:24.611Z,19.87
2018-08-22T03:37:53.493Z,19.74
2018-08-22T03:40:22.365Z,19.86
2018-08-22T03:42:51.308Z,19.77
2018-08-22T03:45:20.283Z,19.80
2018-08-22T03:47:49.222Z,19.79
2018-08-22T03:50:18.189Z,19.66
2018-08-22T03:52:47.145Z,19.69
2018-08-22T03:55:16.077Z,19.68
2018-08-22T03:57:45.026Z,19.78
2018-08-22T04:00:13.938Z,19.74
2018-08-22T04:02:42.916Z,19.76
2018-08-22T04:05:12.855Z,19.72
2018-08-22T04:07:41.752Z,19.73
2018-08-22T04:10:10.695Z,19.66
2018-08-22T04:12:39.627Z,19.64
2018-08-22T04:15:09.556Z,19.56
2018-08-22T04:17:40.467Z,19.59
2018-08-22T04:20:09.861Z,19.61
2018-08-22T04:22:39.920Z,19.58
2018-08-22T04:25:09.352Z,19.57
2018-08-22T04:27:38.268Z,19.63
2018-08-22T04:30:07.501Z,19.64
2018-08-22T04:32:36.497Z,19.58
2018-08-22T04:35:05.525Z,19.52
2018-08-22T04:37:34.418Z,19.45
2018-08-22T04:40:03.347Z,19.52
2018-08-22T04:42:32.233Z,19.51
2018-08-22T04:45:01.105Z,19.51
2018-08-22T04:47:30.013Z,19.55
2018-08-22T04:49:58.855Z,19.54
2018-08-22T04:52:27.839Z,19.58
2018-08-22T04:54:56.828Z,19.60
2018-08-22T04:57:25.809Z,19.64
2018-08-22T04:59:54.782Z,19.62
2018-08-22T05:02:24.733Z,19.77
2018-08-22T05:04:53.783Z,19.88
2018-08-22T05:07:22.741Z,19.85
2018-08-22T05:09:51.649Z,19.85
2018-08-22T05:12:20.557Z,19.88
2018-08-22T05:14:50.263Z,19.73
2018-08-22T05:17:19.184Z,19.81
2018-08-22T05:19:48.133Z,19.86
2018-08-22T05:22:17.044Z,19.86
2018-08-22T05:24:46.007Z,19.90
2018-08-22T05:27:15.870Z,19.96
2018-08-22T05:29:44.774Z,19.90
2018-08-22T05:32:13.630Z,19.93
2018-08-22T05:34:42.561Z,19.99
2018-08-22T05:37:11.472Z,19.91
2018-08-22T05:39:40.408Z,20.01
2018-08-22T05:42:09.363Z,20.02
2018-08-22T05:44:38.240Z,20.05
2018-08-22T05:47:07.153Z,20.07
2018-08-22T05:49:36.020Z,20.13
2018-08-22T05:52:04.929Z,20.11
2018-08-22T05:54:33.841Z,20.14
2018-08-22T05:57:02.765Z,20.23
2018-08-22T05:59:31.652Z,20.31
2018-08-22T06:02:00.624Z,20.34
2018-08-22T06:04:29.486Z,20.44
2018-08-22T06:06:58.457Z,20.49
2018-08-22T06:09:27.492Z,20.53
2018-08-22T06:11:56.386Z,20.54
2018-08-22T06:14:25.279Z,20.60
2018-08-22T06:16:54.151Z,20.64
2018-08-22T06:19:23.129Z,20.65
2018-08-22T06:21:51.971Z,20.69
2018-08-22T06:24:20.884Z,20.77
2018-08-22T06:26:49.887Z,20.82
2018-08-22T06:29:18.775Z,20.86
2018-08-22T06:31:47.821Z,20.91
2018-08-22T06:34:16.749Z,20.96
2018-08-22T06:36:45.627Z,20.96
2018-08-22T06:39:14.494Z,20.99
2018-08-22T06:41:43.394Z,21.02
2018-08-22T06:44:12.278Z,21.04
2018-08-22T06:46:41.179Z,21.07
2018-08-22T06:49:10.050Z,21.16
2018-08-22T06:51:38.951Z,21.19
2018-08-22T06:54:08.016Z,21.26
2018-08-22T06:56:36.907Z,21.33
2018-08-22T06:59:05.795Z,21.37
2018-08-22T07:01:34.701Z,21.39
2018-08-22T07:04:03.807Z,21.45
2018-08-22T07:06:33.056Z,21.50
2018-08-22T07:09:01.937Z,21.56
2018-08-22T07:11:30.826Z,21.62
2018-08-22T07:13:59.786Z,21.68
2018-08-22T07:16:28.763Z,21.78
2018-08-22T07:18:57.670Z,21.84
2018-08-22T07:21:26.553Z,21.87
2018-08-22T07:23:55.461Z,21.91
2018-08-22T07:26:24.351Z,21.95
2018-08-22T07:28:53.237Z,21.99
2018-08-22T07:31:22.192Z,22.01
2018-08-22T07:33:51.195Z,22.10
2018-08-22T07:36:20.089Z,22.19
2018-08-22T07:38:49.043Z,22.18
2018-08-22T07:41:17.937Z,22.20
2018-08-22T07:43:46.872Z,22.22
2018-08-22T07:46:15.869Z,22.26
2018-08-22T07:48:44.791Z,22.39
2018-08-22T07:51:13.693Z,22.35
2018-08-22T07:53:42.599Z,22.39
2018-08-22T07:56:11.481Z,22.42
2018-08-22T07:58:40.381Z,22.42
2018-08-22T08:01:09.324Z,22.47
2018-08-22T08:03:38.228Z,22.55
2018-08-22T08:06:07.121Z,22.55
2018-08-22T08:08:36.063Z,22.61
2018-08-22T08:11:05.118Z,22.70
2018-08-22T08:13:33.969Z,22.64
2018-08-22T08:16:02.867Z,22.72
2018-08-22T08:18:31.911Z,22.88
2018-08-22T08:21:01.841Z,22.89
2018-08-22T08:23:30.913Z,22.84
2018-08-22T08:25:59.829Z,22.87
2018-08-22T08:28:28.917Z,22.89
2018-08-22T08:30:57.806Z,22.99
2018-08-22T08:33:26.805Z,23.08
2018-08-22T08:35:55.775Z,23.01
2018-08-22T08:38:24.728Z,23.04
2018-08-22T08:40:53.561Z,23.21
2018-08-22T08:43:22.508Z,23.21
2018-08-22T08:45:51.437Z,23.22
2018-08-22T08:48:20.323Z,23.38
2018-08-22T08:50:49.218Z,23.32
2018-08-22T08:53:18.170Z,23.57
2018-08-22T08:55:47.113Z,23.47
2018-08-22T08:58:16.019Z,23.68
2018-08-22T09:00:44.926Z,23.85
2018-08-22T09:03:13.852Z,23.73
2018-08-22T09:05:42.783Z,23.88
2018-08-22T09:08:11.658Z,23.83
2018-08-22T09:10:40.545Z,23.81
2018-08-22T09:13:10.795Z,23.78
2018-08-22T09:15:39.846Z,23.82
2018-08-22T09:18:08.717Z,24.03
2018-08-22T09:20:37.683Z,24.01
2018-08-22T09:23:06.693Z,24.19
2018-08-22T09:25:35.591Z,24.15
2018-08-22T09:28:04.605Z,24.14
2018-08-22T09:30:33.536Z,24.47
2018-08-22T09:33:02.448Z,24.27
2018-08-22T09:35:31.379Z,24.29
2018-08-22T09:38:00.307Z,24.28
2018-08-22T09:40:30.324Z,24.34
2018-08-22T09:42:59.246Z,24.39
2018-08-22T09:45:28.127Z,24.60
2018-08-22T09:47:57.030Z,24.42
2018-08-22T09:50:25.925Z,24.71
2018-08-22T09:52:54.789Z,24.66
2018-08-22T09:55:23.724Z,24.73
2018-08-22T09:57:52.658Z,24.68
2018-08-22T10:00:26.930Z,24.64
2018-08-22T10:02:55.811Z,24.94
2018-08-22T10:05:24.698Z,25.07
2018-08-22T10:07:53.654Z,24.86
2018-08-22T10:10:22.565Z,24.78
2018-08-22T10:12:51.522Z,24.80
2018-08-22T10:15:20.429Z,24.96
2018-08-22T10:17:49.352Z,24.93
2018-08-22T10:20:18.357Z,25.00
2018-08-22T10:22:47.307Z,25.17
2018-08-22T10:25:16.200Z,25.11
2018-08-22T10:27:45.102Z,25.39
2018-08-22T10:30:13.967Z,25.46
2018-08-22T10:32:42.914Z,25.57
2018-08-22T10:35:11.727Z,25.50
2018-08-22T10:37:40.673Z,25.75
2018-08-22T10:40:09.537Z,25.68
2018-08-22T10:42:38.449Z,25.55
2018-08-22T10:45:07.387Z,25.53
2018-08-22T10:47:36.281Z,25.63
2018-08-22T10:50:05.225Z,25.92
2018-08-22T10:52:34.214Z,25.97
2018-08-22T10:55:03.192Z,25.83
2018-08-22T10:57:32.091Z,25.65
2018-08-22T11:00:01.020Z,26.05
2018-08-22T11:02:29.965Z,25.92
2018-08-22T11:04:58.877Z,26.03
2018-08-22T11:07:27.777Z,26.37
2018-08-22T11:09:56.723Z,26.05
2018-08-22T11:12:25.567Z,26.23
2018-08-22T11:14:54.527Z,26.16
2018-08-22T11:17:23.425Z,26.17
2018-08-22T11:19:52.325Z,26.34
2018-08-22T11:22:32.425Z,26.16
2018-08-22T11:25:12.602Z,26.36
2018-08-22T11:27:52.692Z,26.37
2018-08-22T11:30:33.102Z,26.55
2018-08-22T11:33:13.281Z,26.29
2018-08-22T11:35:41.282Z,26.95
2018-08-22T11:38:10.959Z,26.87
2018-08-22T11:40:40.327Z,26.66
2018-08-22T11:43:09.626Z,26.54
2018-08-22T11:45:38.970Z,26.61
2018-08-22T11:48:08.328Z,27.14
2018-08-22T11:50:37.739Z,27.26
2018-08-22T11:53:07.079Z,27.06
2018-08-22T11:55:36.456Z,27.33
2018-08-22T11:58:05.800Z,27.42
2018-08-22T12:00:35.259Z,27.37
2018-08-22T12:03:04.161Z,27.74
2018-08-22T12:05:33.048Z,28.00
2018-08-22T12:08:01.955Z,27.62
2018-08-22T12:10:30.948Z,27.33
2018-08-22T12:13:01.462Z,27.56
2018-08-22T12:15:30.361Z,27.73
2018-08-22T12:17:59.451Z,27.56
2018-08-22T12:20:28.627Z,27.43
2018-08-22T12:22:57.543Z,27.69
2018-08-22T12:25:26.465Z,27.52
2018-08-22T12:27:55.328Z,27.73
2018-08-22T12:30:24.233Z,27.86
2018-08-22T12:32:53.136Z,27.79
2018-08-22T12:35:22.186Z,27.94
2018-08-22T12:37:51.110Z,27.86
2018-08-22T12:40:19.982Z,28.14
2018-08-22T12:42:48.867Z,28.14
2018-08-22T12:45:17.773Z,28.01
2018-08-22T12:47:46.813Z,28.43
2018-08-22T12:50:15.740Z,28.56
2018-08-22T12:52:44.678Z,28.54
2018-08-22T12:55:13.646Z,28.48
2018-08-22T12:57:42.650Z,28.64
2018-08-22T13:00:11.681Z,28.82
2018-08-22T13:02:40.632Z,28.66
2018-08-22T13:05:09.553Z,28.85
2018-08-22T13:07:38.464Z,28.74
2018-08-22T13:10:07.428Z,28.67
2018-08-22T13:12:36.447Z,28.44
2018-08-22T13:15:06.667Z,28.29
2018-08-22T13:17:35.624Z,28.52
2018-08-22T13:20:05.012Z,28.48
2018-08-22T13:22:33.895Z,28.53
2018-08-22T13:25:02.980Z,28.60
2018-08-22T13:27:31.893Z,28.67
2018-08-22T13:30:01.868Z,28.58
2018-08-22T13:32:30.866Z,28.51
2018-08-22T13:34:59.805Z,28.72
2018-08-22T13:37:28.784Z,28.59
2018-08-22T13:39:57.685Z,28.07
2018-08-22T13:42:26.653Z,27.78
2018-08-22T13:44:56.634Z,27.90
2018-08-22T13:47:25.547Z,28.07
2018-08-22T13:49:54.715Z,28.16
2018-08-22T13:52:24.713Z,28.20
2018-08-22T13:54:53.657Z,28.29
2018-08-22T13:57:22.595Z,28.46
2018-08-22T13:59:51.505Z,28.48
2018-08-22T14:02:20.432Z,28.44
2018-08-22T14:04:49.365Z,28.45
2018-08-22T14:07:18.287Z,28.42
2018-08-22T14:09:47.222Z,28.49
2018-08-22T14:12:16.081Z,28.47
2018-08-22T14:14:44.984Z,28.56
2018-08-22T14:17:13.901Z,28.64
2018-08-22T14:19:42.809Z,28.47
2018-08-22T14:22:11.828Z,28.46
2018-08-22T14:24:40.740Z,28.55
2018-08-22T14:27:09.669Z,28.44
2018-08-22T14:29:38.717Z,28.45
2018-08-22T14:32:07.658Z,28.61
2018-08-22T14:34:36.619Z,28.53
2018-08-22T14:37:05.768Z,28.48
2018-08-22T14:39:34.658Z,28.47
2018-08-22T14:42:03.568Z,28.29
2018-08-22T14:44:32.624Z,28.07
2018-08-22T14:47:01.510Z,28.36
2018-08-22T14:49:30.403Z,28.24
2018-08-22T14:51:59.487Z,28.23
2018-08-22T14:54:28.402Z,28.54
2018-08-22T14:56:57.402Z,28.36
2018-08-22T14:59:26.434Z,28.47
2018-08-22T15:01:55.480Z,28.48
2018-08-22T15:04:24.395Z,28.50
2018-08-22T15:06:53.411Z,28.30
2018-08-22T15:09:22.348Z,28.15
2018-08-22T15:11:52.270Z,28.08
2018-08-22T15:14:21.142Z,28.11
2018-08-22T15:16:51.138Z,28.04
2018-08-22T15:19:20.081Z,27.98
2018-08-22T15:21:48.980Z,27.97
2018-08-22T15:24:17.885Z,28.00
2018-08-22T15:26:46.954Z,28.23
2018-08-22T15:29:15.825Z,28.39
2018-08-22T15:31:44.738Z,28.33
2018-08-22T15:34:13.650Z,28.08
2018-08-22T15:36:42.581Z,28.23
2018-08-22T15:39:11.905Z,28.37
2018-08-22T15:41:41.841Z,28.23
2018-08-22T15:44:10.778Z,28.02
2018-08-22T15:46:39.695Z,27.96
2018-08-22T15:49:09.729Z,28.04
2018-08-22T15:51:39.955Z,28.14
2018-08-22T15:54:12.015Z,28.01
2018-08-22T15:56:41.745Z,27.82
2018-08-22T15:59:11.491Z,27.83
2018-08-22T16:01:41.529Z,27.78
2018-08-22T16:04:10.857Z,27.69
2018-08-22T16:06:39.751Z,27.77
2018-08-22T16:09:14.651Z,27.72
2018-08-22T16:11:44.061Z,27.60
2018-08-22T16:14:13.020Z,27.63
2018-08-22T16:16:41.961Z,27.70
2018-08-22T16:19:10.876Z,27.66
2018-08-22T16:21:39.903Z,27.78
2018-08-22T16:24:08.910Z,27.65
2018-08-22T16:26:38.766Z,27.55
2018-08-22T16:29:07.742Z,27.71
2018-08-22T16:31:41.872Z,27.66
2018-08-22T16:34:11.283Z,27.61
2018-08-22T16:36:41.007Z,27.70
2018-08-22T16:39:11.167Z,27.75
2018-08-22T16:41:40.347Z,27.75
2018-08-22T16:44:09.729Z,27.61
2018-08-22T16:46:39.224Z,27.57
2018-08-22T16:49:09.878Z,27.50
2018-08-22T16:51:38.859Z,27.43
2018-08-22T16:54:08.803Z,27.42
2018-08-22T16:56:37.885Z,27.28
2018-08-22T16:59:11.049Z,27.37
2018-08-22T17:01:41.606Z,27.28
2018-08-22T17:04:11.583Z,27.13
2018-08-22T17:06:40.489Z,27.09
2018-08-22T17:09:10.324Z,27.09
2018-08-22T17:11:39.277Z,27.19
2018-08-22T17:14:08.227Z,27.10
2018-08-22T17:16:37.197Z,27.06
2018-08-22T17:19:06.113Z,27.07
2018-08-22T17:21:37.148Z,26.93
2018-08-22T17:24:06.266Z,26.97
2018-08-22T17:26:36.259Z,26.89
2018-08-22T17:29:06.247Z,26.83
2018-08-22T17:31:35.259Z,26.72
2018-08-22T17:34:04.381Z,26.72
2018-08-22T17:36:33.332Z,26.70
2018-08-22T17:39:02.438Z,26.74
2018-08-22T17:41:31.437Z,26.64
2018-08-22T17:44:04.425Z,26.64
2018-08-22T17:46:37.317Z,26.57
2018-08-22T17:49:06.287Z,26.55
2018-08-22T17:51:46.054Z,26.51
2018-08-22T17:54:16.041Z,26.47
2018-08-22T17:56:44.921Z,26.41
2018-08-22T17:59:13.817Z,26.39
2018-08-22T18:01:42.767Z,26.38
2018-08-22T18:04:11.820Z,26.33
2018-08-22T18:06:40.759Z,26.35
2018-08-22T18:09:09.777Z,26.27
2018-08-22T18:11:38.708Z,26.23
2018-08-22T18:14:07.560Z,26.25
2018-08-22T18:16:36.475Z,26.20
2018-08-22T18:19:05.380Z,26.10
2018-08-22T18:21:38.509Z,26.09
2018-08-22T18:24:08.373Z,26.03
2018-08-22T18:26:37.371Z,25.99
2018-08-22T18:29:06.399Z,25.95
2018-08-22T18:31:35.345Z,25.93
2018-08-22T18:34:04.376Z,25.91
2018-08-22T18:36:33.356Z,25.83
2018-08-22T18:39:08.291Z,25.78
2018-08-22T18:41:37.572Z,25.76
2018-08-22T18:44:06.559Z,25.76
2018-08-22T18:46:35.594Z,25.74
2018-08-22T18:49:05.197Z,25.68
2018-08-22T18:51:34.648Z,25.65
2018-08-22T18:54:04.197Z,25.63
2018-08-22T18:56:33.109Z,25.57
2018-08-22T18:59:13.253Z,25.56
2018-08-22T19:01:42.228Z,25.54
2018-08-22T19:04:11.210Z,25.52
2018-08-22T19:06:40.201Z,25.48
2018-08-22T19:09:09.089Z,25.44
2018-08-22T19:11:38.163Z,25.41
2018-08-22T19:14:07.208Z,25.38
2018-08-22T19:16:36.081Z,25.34
2018-08-22T19:19:05.121Z,25.28
2018-08-22T19:21:34.065Z,25.23
2018-08-22T19:24:06.138Z,25.18
2018-08-22T19:26:35.205Z,25.10
2018-08-22T19:29:05.464Z,25.05
2018-08-22T19:31:35.277Z,25.02
2018-08-22T19:34:04.192Z,24.96
2018-08-22T19:36:33.126Z,24.89
2018-08-22T19:39:02.198Z,24.86
2018-08-22T19:41:33.501Z,24.79
2018-08-22T19:44:02.533Z,24.75
2018-08-22T19:46:32.490Z,24.72
2018-08-22T19:49:01.568Z,24.65
2018-08-22T19:51:31.714Z,24.60
2018-08-22T19:54:05.026Z,24.51
2018-08-22T19:56:34.002Z,24.54
2018-08-22T19:59:03.542Z,24.52
2018-08-22T20:01:33.967Z,24.49
2018-08-22T20:04:02.870Z,24.49
2018-08-22T20:06:31.802Z,24.44
2018-08-22T20:09:01.901Z,24.45
2018-08-22T20:11:33.447Z,24.40
2018-08-22T20:14:04.946Z,24.31
2018-08-22T20:16:33.845Z,24.31
2018-08-22T20:19:04.132Z,24.26
2018-08-22T20:21:34.327Z,24.33
2018-08-22T20:24:06.732Z,24.28
2018-08-22T20:26:36.901Z,24.21
2018-08-22T20:29:06.233Z,24.21
2018-08-22T20:31:36.144Z,24.14
2018-08-22T20:34:15.586Z,24.14
2018-08-22T20:36:47.101Z,24.01
2018-08-22T20:39:16.217Z,24.05
2018-08-22T20:41:45.483Z,24.00
2018-08-22T20:44:19.887Z,24.04
2018-08-22T20:46:49.271Z,24.06
2018-08-22T20:49:19.756Z,23.96
2018-08-22T20:51:48.959Z,23.97
2018-08-22T20:54:22.254Z,23.96
2018-08-22T20:56:56.474Z,23.93
2018-08-22T20:59:25.595Z,23.91
2018-08-22T21:02:04.427Z,23.93
2018-08-22T21:04:33.868Z,23.88
2018-08-22T21:07:03.055Z,23.83
2018-08-22T21:09:32.290Z,23.79
2018-08-22T21:12:01.609Z,23.75
2018-08-22T21:14:31.882Z,23.73
2018-08-22T21:17:01.234Z,23.68
2018-08-22T21:19:30.124Z,23.67
2018-08-22T21:21:59.067Z,23.64
2018-08-22T21:24:28.048Z,23.58
2018-08-22T21:26:56.913Z,23.59
2018-08-22T21:29:25.846Z,23.59
2018-08-22T21:31:54.733Z,23.54
2018-08-22T21:34:24.302Z,23.52
2018-08-22T21:36:53.194Z,23.47
2018-08-22T21:39:25.080Z,23.53
2018-08-22T21:41:54.111Z,23.40
2018-08-22T21:44:23.678Z,23.46
2018-08-22T21:46:59.692Z,23.34
2018-08-22T21:49:28.975Z,23.39
2018-08-22T21:52:00.035Z,23.37
2018-08-22T21:54:28.979Z,23.33
2018-08-22T21:56:57.946Z,23.24
2018-08-22T21:59:26.987Z,23.28
2018-08-22T22:02:01.163Z,23.36
2018-08-22T22:04:33.908Z,23.35
2018-08-22T22:07:03.809Z,23.12
2018-08-22T22:09:32.988Z,23.18
2018-08-22T22:12:02.491Z,23.23
2018-08-22T22:14:36.231Z,23.18
2018-08-22T22:17:05.852Z,23.08
2018-08-22T22:19:35.807Z,23.06
2018-08-22T22:22:04.954Z,22.92
2018-08-22T22:24:39.032Z,22.86
2018-08-22T22:27:08.989Z,22.74
2018-08-22T22:29:38.921Z,22.66
2018-08-22T22:32:08.010Z,22.65
2018-08-22T22:34:36.875Z,22.55
2018-08-22T22:37:05.995Z,22.43
2018-08-22T22:39:44.895Z,22.34
2018-08-22T22:42:19.172Z,22.34
2018-08-22T22:44:49.453Z,22.29
2018-08-22T22:47:23.520Z,22.22
2018-08-22T22:49:52.520Z,22.16
2018-08-22T22:52:29.630Z,21.95
2018-08-22T22:54:59.827Z,22.02
2018-08-22T22:57:30.397Z,22.01
2018-08-22T22:59:59.606Z,21.86
2018-08-22T23:02:28.898Z,21.86
2018-08-22T23:04:58.552Z,21.83
2018-08-22T23:07:28.629Z,21.81
2018-08-22T23:09:59.780Z,21.76
2018-08-22T23:12:46.871Z,21.69
2018-08-22T23:15:19.173Z,21.68
2018-08-22T23:17:49.789Z,21.66
2018-08-22T23:20:26.094Z,21.58
2018-08-22T23:22:55.373Z,21.61
2018-08-22T23:25:24.524Z,21.54
2018-08-22T23:27:53.837Z,21.49
2018-08-22T23:30:28.003Z,21.47
2018-08-22T23:32:57.001Z,21.38
2018-08-22T23:35:27.553Z,21.45
2018-08-22T23:37:57.498Z,21.41
2018-08-22T23:40:27.481Z,21.37
2018-08-22T23:42:56.582Z,21.32
2018-08-22T23:45:25.588Z,21.30
2018-08-22T23:47:54.545Z,21.27
2018-08-22T23:50:23.475Z,21.27
2018-08-22T23:52:53.953Z,21.23
2018-08-22T23:55:23.715Z,21.18
2018-08-22T23:57:54.303Z,21.18
